createdAt,value
2023-02-06T00:02:05.250Z,91.10
2023-02-06T00:05:11.203Z,90.36
2023-02-06T00:08:17.619Z,90.70
2023-02-06T00:11:21.894Z,90.53
2023-02-06T00:14:24.956Z,91.31
2023-02-06T00:17:32.378Z,92.60
2023-02-06T00:20:35.273Z,92.77
2023-02-06T00:23:38.967Z,92.46
2023-02-06T00:26:52.132Z,93.31
2023-02-06T00:29:58.247Z,93.58
2023-02-06T00:33:01.178Z,93.59
2023-02-06T00:36:05.413Z,94.06
2023-02-06T00:39:10.026Z,93.76
2023-02-06T00:42:13.023Z,94.02
2023-02-06T00:45:17.785Z,94.10
2023-02-06T00:48:21.186Z,94.32
2023-02-06T00:51:24.451Z,94.92
2023-02-06T00:54:28.684Z,94.84
2023-02-06T00:57:35.120Z,94.83
2023-02-06T01:00:38.875Z,93.92
2023-02-06T01:03:41.730Z,94.44
2023-02-06T01:06:45.306Z,95.19
2023-02-06T01:09:50.414Z,95.07
2023-02-06T01:12:54.755Z,95.38
2023-02-06T01:16:22.579Z,95.26
2023-02-06T01:19:30.213Z,95.05
2023-02-06T01:22:35.071Z,94.91
2023-02-06T01:25:42.241Z,95.13
2023-02-06T01:28:51.091Z,96.06
2023-02-06T01:31:59.510Z,97.05
2023-02-06T01:35:02.292Z,96.80
2023-02-06T01:38:05.749Z,96.34
2023-02-06T01:41:11.208Z,96.78
2023-02-06T01:44:18.420Z,96.80
2023-02-06T01:47:23.778Z,97.04
2023-02-06T01:50:33.557Z,96.34
2023-02-06T01:53:39.398Z,96.33
2023-02-06T01:56:50.087Z,96.65
2023-02-06T02:00:01.828Z,97.07
2023-02-06T02:03:16.458Z,96.70
2023-02-06T02:06:24.309Z,96.18
2023-02-06T02:09:27.521Z,95.15
2023-02-06T02:12:32.718Z,94.22
2023-02-06T02:15:46.901Z,94.50
2023-02-06T02:18:53.269Z,94.39
2023-02-06T02:22:33.807Z,93.76
2023-02-06T02:25:58.933Z,93.64
2023-02-06T02:29:20.691Z,91.35
2023-02-06T02:32:40.950Z,91.23
2023-02-06T02:35:54.379Z,91.48
2023-02-06T02:39:01.030Z,91.61
2023-02-06T02:42:20.981Z,91.79
2023-02-06T02:45:29.752Z,91.82
2023-02-06T02:48:40.380Z,92.28
2023-02-06T02:51:45.330Z,92.44
2023-02-06T02:54:50.723Z,92.04
2023-02-06T02:58:02.420Z,93.20
2023-02-06T03:01:11.570Z,94.05
2023-02-06T03:04:43.246Z,94.52
2023-02-06T03:07:58.051Z,94.42
2023-02-06T03:11:01.385Z,94.05
2023-02-06T03:14:26.309Z,93.68
2023-02-06T03:17:44.661Z,93.71
2023-02-06T03:20:48.469Z,93.57
2023-02-06T03:23:55.142Z,93.80
2023-02-06T03:27:00.757Z,93.78
2023-02-06T03:30:06.299Z,93.39
2023-02-06T03:33:13.686Z,93.45
2023-02-06T03:36:20.239Z,93.24
2023-02-06T03:39:27.381Z,92.73
2023-02-06T03:42:32.944Z,92.90
2023-02-06T03:45:44.626Z,93.64
2023-02-06T03:48:56.942Z,94.17
2023-02-06T03:52:07.003Z,93.95
2023-02-06T03:55:17.309Z,94.13
2023-02-06T03:58:24.502Z,94.06
2023-02-06T04:02:00.612Z,93.97
2023-02-06T04:05:25.166Z,94.23
2023-02-06T04:08:34.055Z,94.82
2023-02-06T04:11:38.927Z,95.33
2023-02-06T04:14:43.459Z,95.70
2023-02-06T04:17:59.565Z,96.48
2023-02-06T04:21:08.344Z,96.62
2023-02-06T07:43:31.376Z,84.38
2023-02-06T11:04:44.166Z,53.88
2023-02-06T11:08:43.407Z,53.74
2023-02-06T11:47:56.154Z,46.86
2023-02-06T11:51:19.161Z,46.25
2023-02-06T11:54:57.105Z,46.75
2023-02-06T12:09:39.064Z,47.18
2023-02-06T12:13:32.446Z,47.40
2023-02-06T12:24:42.802Z,47.36
2023-02-06T12:28:17.118Z,47.76
2023-02-06T12:36:08.698Z,47.80
2023-02-06T12:39:35.489Z,49.08
2023-02-06T12:43:18.843Z,48.30
2023-02-06T12:51:27.009Z,48.55
2023-02-06T12:58:49.031Z,49.11
2023-02-06T13:02:45.924Z,49.48
2023-02-06T13:06:35.573Z,49.85
2023-02-06T13:10:38.316Z,49.01
2023-02-06T13:26:05.018Z,48.42
2023-02-06T13:29:55.273Z,49.39
2023-02-06T13:33:39.726Z,48.93
2023-02-06T13:37:20.654Z,47.86
2023-02-06T13:40:51.646Z,47.97
2023-02-06T13:52:06.863Z,48.16
2023-02-06T14:00:19.648Z,48.72
2023-02-06T14:03:51.493Z,48.70
2023-02-06T14:07:43.233Z,49.21
2023-02-06T14:11:47.821Z,49.37
2023-02-06T14:15:49.572Z,48.77
2023-02-06T14:19:47.419Z,49.43
2023-02-06T14:23:39.591Z,49.99
2023-02-06T14:27:41.600Z,49.39
2023-02-06T14:31:50.987Z,48.65
2023-02-06T14:35:29.053Z,50.60
2023-02-06T14:39:03.546Z,50.74
2023-02-06T14:42:46.784Z,51.73
2023-02-06T14:46:33.958Z,53.49
2023-02-06T14:50:42.413Z,54.10
2023-02-06T14:54:38.835Z,54.81
2023-02-06T14:58:34.489Z,55.36
2023-02-06T15:02:24.810Z,54.41
2023-02-06T15:06:09.541Z,56.01
2023-02-06T15:09:49.093Z,56.98
2023-02-06T15:13:36.092Z,57.82
2023-02-06T15:17:21.829Z,58.49
2023-02-06T15:25:24.455Z,58.54
2023-02-06T15:29:06.971Z,59.48
2023-02-06T15:50:56.037Z,61.29
2023-02-06T16:05:52.852Z,63.04
2023-02-06T16:09:33.484Z,63.69
2023-02-06T16:20:34.224Z,64.94
2023-02-06T16:42:34.895Z,66.27
2023-02-06T16:53:35.307Z,68.56
2023-02-06T17:19:55.743Z,73.06
2023-02-06T17:23:41.958Z,73.11
2023-02-06T17:27:29.938Z,73.48
2023-02-06T17:31:06.008Z,74.14
2023-02-06T17:42:01.064Z,75.78
2023-02-06T17:45:39.872Z,76.49
2023-02-06T17:49:20.032Z,77.09
2023-02-06T17:53:16.991Z,77.25
2023-02-06T18:00:32.404Z,76.34
2023-02-06T18:08:10.409Z,76.46
2023-02-06T18:11:53.027Z,76.54
2023-02-06T18:30:15.823Z,79.64
2023-02-06T18:37:32.964Z,79.62
2023-02-06T18:52:06.934Z,80.87
2023-02-06T18:59:43.855Z,81.33
2023-02-06T19:18:38.779Z,82.69
2023-02-06T19:25:58.163Z,82.02
2023-02-06T19:29:35.618Z,81.14
2023-02-06T19:32:56.728Z,80.51
2023-02-06T19:43:38.033Z,79.36
2023-02-06T19:51:22.828Z,79.49
2023-02-06T20:02:40.118Z,80.48
2023-02-06T20:46:03.694Z,87.66
2023-02-06T20:49:42.985Z,87.99
2023-02-06T20:53:15.562Z,88.87
2023-02-06T20:56:51.446Z,89.16
2023-02-06T21:00:31.502Z,89.04
2023-02-06T21:04:09.201Z,88.34
2023-02-06T21:07:43.863Z,88.56
2023-02-06T21:11:17.981Z,88.44
2023-02-06T21:14:50.574Z,88.75
2023-02-06T21:18:12.285Z,88.94
2023-02-06T21:21:49.609Z,88.74
2023-02-06T21:25:31.485Z,89.01
2023-02-06T21:28:49.443Z,88.66
2023-02-06T21:32:24.811Z,89.16
2023-02-06T21:35:52.888Z,90.05
2023-02-06T21:39:17.798Z,90.29
2023-02-06T21:42:58.232Z,90.92
2023-02-06T21:46:36.659Z,91.53
2023-02-06T21:49:59.841Z,92.17
2023-02-06T21:53:44.459Z,92.26
2023-02-06T21:57:17.759Z,92.49
2023-02-06T22:01:13.745Z,92.87
2023-02-06T22:04:33.776Z,93.00
2023-02-06T22:07:51.091Z,94.04
2023-02-06T22:11:26.130Z,94.03
2023-02-06T22:15:02.175Z,93.63
2023-02-06T22:18:22.781Z,93.69
2023-02-06T22:21:46.850Z,94.03
2023-02-06T22:25:08.082Z,94.26
2023-02-06T22:28:33.945Z,94.77
2023-02-06T22:32:13.171Z,94.91
2023-02-06T22:36:02.237Z,95.91
2023-02-06T22:39:22.206Z,96.07
2023-02-06T22:42:51.062Z,96.72
2023-02-06T22:46:56.835Z,96.38
2023-02-06T22:50:36.859Z,96.95
2023-02-06T22:54:12.696Z,97.32
2023-02-06T22:57:30.438Z,96.73
2023-02-06T23:01:03.040Z,96.94
2023-02-06T23:04:28.593Z,97.30
2023-02-06T23:08:02.837Z,97.77
2023-02-06T23:11:32.416Z,97.59
2023-02-06T23:14:50.119Z,97.86
2023-02-06T23:18:26.518Z,98.46
2023-02-06T23:21:47.371Z,97.93
2023-02-06T23:25:05.471Z,98.40
2023-02-06T23:28:42.141Z,98.88
2023-02-06T23:32:14.484Z,98.59
2023-02-06T23:35:50.558Z,99.20
2023-02-06T23:39:08.111Z,99.25
2023-02-06T23:42:44.128Z,99.49
2023-02-06T23:46:20.627Z,99.32
2023-02-06T23:49:38.357Z,99.40
2023-02-06T23:52:56.017Z,99.58
2023-02-06T23:56:30.202Z,99.45
